Terminal Aerodrome Forecast
Issued by NWS

Current Version | Previous Version | Text Only | Print | Product List | Glossary On
Versions: 1 2 3 4 5 6 7 8 9 10 11 12 13 14 15
000
FTUS45 KRIW 062331
TAFLND
TAF
KLND 062331Z 0700/0724 VRB04KT P6SM VCTS SCT045CB BKN090
      TEMPO 0700/0702 VRB15G25KT 5SM -TSRA BKN045CB
     FM071300 VRB03KT P6SM VCFG SCT090
     FM071700 04007KT P6SM SCT080 SCT120
     FM072200 02008KT P6SM VCTS BKN060CB=

USA.gov is the U.S. government's official web portal to all federal, state and local government web resources and services.